createdAt,value
2022-12-29T00:00:30.143Z,51.07
2022-12-29T00:01:28.871Z,51.09
2022-12-29T00:02:28.880Z,51.09
2022-12-29T00:03:28.978Z,51.23
2022-12-29T00:05:28.884Z,51.16
2022-12-29T00:06:28.872Z,51.09
2022-12-29T00:07:28.838Z,51.09
2022-12-29T00:08:28.841Z,51.05
2022-12-29T00:09:28.901Z,50.95
2022-12-29T00:10:28.875Z,50.69
2022-12-29T00:11:28.942Z,50.69
2022-12-29T00:12:28.902Z,50.53
2022-12-29T00:13:28.911Z,50.53
2022-12-29T00:14:28.902Z,51.14
2022-12-29T00:15:28.889Z,51.14
2022-12-29T00:16:29.077Z,51.31
2022-12-29T00:17:28.885Z,51.31
2022-12-29T00:18:28.901Z,51.42
2022-12-29T00:19:28.935Z,51.35
2022-12-29T00:20:28.866Z,51.35
2022-12-29T00:21:28.967Z,50.90
2022-12-29T00:22:28.912Z,50.90
2022-12-29T00:23:28.876Z,51.03
2022-12-29T00:24:28.889Z,50.74
2022-12-29T00:25:28.883Z,49.32
2022-12-29T00:28:28.909Z,49.17
2022-12-29T00:29:28.923Z,48.62
2022-12-29T00:30:28.906Z,48.62
2022-12-29T00:31:28.953Z,48.55
2022-12-29T00:32:28.962Z,48.59
2022-12-29T00:33:28.948Z,48.58
2022-12-29T00:34:28.933Z,47.93
2022-12-29T00:35:28.920Z,47.93
2022-12-29T00:36:28.958Z,48.13
2022-12-29T00:37:30.365Z,47.65
2022-12-29T00:38:28.937Z,47.65
2022-12-29T00:39:28.992Z,47.95
2022-12-29T00:40:28.937Z,47.70
2022-12-29T00:41:28.957Z,47.70
2022-12-29T00:42:29.005Z,47.33
2022-12-29T00:43:28.924Z,47.33
2022-12-29T00:44:28.952Z,46.73
2022-12-29T00:46:29.036Z,46.86
2022-12-29T00:47:28.973Z,47.05
2022-12-29T00:48:28.992Z,47.05
2022-12-29T00:49:28.968Z,46.88
2022-12-29T00:50:28.994Z,46.85
2022-12-29T00:51:28.982Z,46.85
2022-12-29T00:52:29.016Z,46.41
2022-12-29T00:53:28.980Z,46.41
2022-12-29T00:54:28.982Z,46.71
2022-12-29T00:55:29.014Z,46.49
2022-12-29T00:56:29.000Z,46.49
2022-12-29T00:57:29.004Z,45.87
2022-12-29T00:58:29.017Z,45.52
2022-12-29T00:59:29.009Z,45.52
2022-12-29T01:00:29.058Z,44.82
2022-12-29T01:01:29.158Z,44.82
2022-12-29T01:02:29.188Z,44.86
2022-12-29T01:03:28.973Z,44.86
2022-12-29T01:04:29.018Z,45.00
2022-12-29T01:05:29.049Z,44.70
2022-12-29T01:06:29.012Z,44.70
2022-12-29T01:07:29.047Z,44.27
2022-12-29T01:08:28.988Z,44.27
2022-12-29T01:09:29.021Z,44.40
2022-12-29T01:10:28.988Z,45.08
2022-12-29T01:11:29.042Z,45.04
2022-12-29T01:12:29.032Z,45.29
2022-12-29T01:13:29.052Z,45.13
2022-12-29T01:14:30.610Z,45.01
2022-12-29T01:15:29.037Z,45.54
2022-12-29T01:16:29.068Z,45.25
2022-12-29T01:17:29.028Z,45.25
2022-12-29T01:18:29.019Z,45.16
2022-12-29T01:19:29.025Z,44.76
2022-12-29T01:20:29.039Z,44.89
2022-12-29T01:21:29.026Z,44.89
2022-12-29T01:22:29.073Z,45.14
2022-12-29T01:24:29.077Z,44.88
2022-12-29T01:25:29.121Z,44.34
2022-12-29T01:26:29.021Z,44.34
2022-12-29T01:27:29.070Z,44.83
2022-12-29T01:28:29.039Z,44.83
2022-12-29T01:29:29.122Z,44.84
2022-12-29T01:30:29.114Z,45.09
2022-12-29T01:32:29.139Z,44.67
2022-12-29T01:33:29.122Z,44.67
2022-12-29T01:35:29.090Z,45.06
2022-12-29T01:36:29.055Z,45.06
2022-12-29T01:37:29.169Z,44.95
2022-12-29T01:38:29.095Z,44.95
2022-12-29T01:39:29.115Z,44.86
2022-12-29T01:40:29.194Z,45.05
2022-12-29T01:41:29.110Z,45.05
2022-12-29T01:42:29.111Z,44.74
2022-12-29T01:43:29.080Z,44.59
2022-12-29T01:44:29.107Z,44.59
2022-12-29T01:45:29.207Z,44.76
2022-12-29T01:46:29.070Z,44.89
2022-12-29T01:47:29.135Z,44.61
2022-12-29T01:48:29.186Z,44.29
2022-12-29T01:49:29.133Z,44.49
2022-12-29T01:50:29.171Z,44.64
2022-12-29T01:51:30.852Z,44.84
2022-12-29T01:52:29.129Z,44.84
2022-12-29T01:53:29.138Z,44.78
2022-12-29T01:54:29.182Z,44.84
2022-12-29T01:55:29.132Z,44.97
2022-12-29T01:56:29.126Z,45.04
2022-12-29T01:58:29.188Z,44.75
2022-12-29T01:59:29.122Z,44.75
2022-12-29T02:00:29.181Z,44.68
2022-12-29T02:01:29.247Z,44.68
2022-12-29T02:03:29.322Z,44.33
2022-12-29T02:04:29.165Z,44.77
2022-12-29T02:05:29.189Z,44.77
2022-12-29T02:06:29.216Z,45.03
2022-12-29T02:07:29.180Z,45.03
2022-12-29T02:08:29.183Z,45.37
2022-12-29T02:09:29.174Z,45.37
2022-12-29T02:10:29.183Z,45.36
2022-12-29T02:11:29.246Z,45.55
2022-12-29T02:12:29.193Z,45.47
2022-12-29T02:13:29.251Z,45.48
2022-12-29T02:14:29.195Z,45.33
2022-12-29T02:15:29.184Z,45.33
2022-12-29T02:16:29.331Z,45.61
2022-12-29T02:17:29.210Z,45.61
2022-12-29T02:18:29.227Z,45.65
2022-12-29T02:19:29.217Z,45.82
2022-12-29T02:20:29.212Z,45.82
2022-12-29T02:21:29.231Z,45.12
2022-12-29T02:24:29.222Z,45.27
2022-12-29T02:25:29.221Z,45.37
2022-12-29T02:26:29.249Z,45.71
2022-12-29T02:27:29.176Z,45.71
2022-12-29T02:28:31.009Z,46.08
2022-12-29T02:29:29.175Z,46.08
2022-12-29T02:30:29.206Z,46.34
2022-12-29T02:31:29.353Z,46.64
2022-12-29T02:32:29.190Z,46.64
2022-12-29T02:33:29.243Z,46.87
2022-12-29T02:34:29.226Z,46.87
2022-12-29T02:35:29.249Z,46.92
2022-12-29T02:36:29.289Z,47.04
2022-12-29T02:37:29.247Z,47.04
2022-12-29T02:38:29.194Z,47.53
2022-12-29T02:39:29.213Z,47.92
2022-12-29T02:41:29.265Z,47.96
2022-12-29T02:42:29.252Z,47.97
2022-12-29T02:43:29.250Z,47.97
2022-12-29T02:44:29.261Z,48.03
2022-12-29T02:45:29.379Z,47.71
2022-12-29T02:46:29.264Z,47.71
2022-12-29T02:47:29.286Z,48.04
2022-12-29T02:48:29.261Z,48.04
2022-12-29T02:49:29.315Z,47.68
2022-12-29T02:50:29.228Z,47.68
2022-12-29T02:51:29.240Z,47.68
2022-12-29T02:52:29.261Z,47.50
2022-12-29T02:53:29.275Z,47.59
2022-12-29T02:54:29.271Z,47.44
2022-12-29T02:55:29.281Z,47.44
2022-12-29T02:56:29.299Z,47.39
2022-12-29T02:57:29.327Z,47.36
2022-12-29T02:58:29.258Z,47.40
2022-12-29T02:59:29.312Z,47.19
2022-12-29T03:00:29.276Z,47.19
2022-12-29T03:01:29.423Z,47.29
2022-12-29T03:02:29.406Z,47.26
2022-12-29T03:03:29.489Z,47.22
2022-12-29T03:04:29.329Z,47.35
2022-12-29T03:05:31.306Z,47.41
2022-12-29T03:06:29.318Z,47.41
2022-12-29T03:07:29.314Z,47.47
2022-12-29T03:08:29.281Z,47.47
2022-12-29T03:09:29.319Z,47.38
2022-12-29T03:13:29.487Z,47.21
2022-12-29T03:14:29.324Z,47.42
2022-12-29T03:15:29.288Z,47.42
2022-12-29T03:16:29.336Z,48.03
2022-12-29T03:18:29.297Z,48.13
2022-12-29T03:20:29.357Z,48.05
2022-12-29T03:21:29.351Z,48.25
2022-12-29T03:23:29.363Z,48.32
2022-12-29T03:24:29.382Z,48.23
2022-12-29T03:25:29.351Z,48.23
2022-12-29T03:26:29.362Z,48.00
2022-12-29T03:27:29.400Z,47.89
2022-12-29T03:28:29.372Z,47.89
2022-12-29T03:29:29.364Z,47.73
2022-12-29T03:30:29.397Z,47.91
2022-12-29T03:32:29.459Z,48.12
2022-12-29T03:33:29.388Z,48.12
2022-12-29T03:34:29.394Z,48.49
2022-12-29T03:35:29.429Z,49.30
2022-12-29T03:36:29.382Z,49.28
2022-12-29T03:37:29.392Z,49.33
2022-12-29T03:38:29.351Z,49.33
2022-12-29T03:39:29.347Z,49.11
2022-12-29T03:40:29.443Z,49.04
2022-12-29T03:41:29.357Z,49.04
2022-12-29T03:42:31.544Z,49.01
2022-12-29T03:43:29.410Z,49.01
2022-12-29T03:44:29.627Z,49.14
2022-12-29T03:45:29.448Z,49.02
2022-12-29T03:47:29.384Z,48.86
2022-12-29T03:48:29.416Z,49.05
2022-12-29T03:49:29.417Z,48.98
2022-12-29T03:50:29.412Z,48.72
2022-12-29T03:51:29.417Z,48.72
2022-12-29T03:52:29.429Z,48.44
2022-12-29T03:53:29.443Z,48.02
2022-12-29T03:54:29.395Z,47.80
2022-12-29T03:55:29.393Z,47.80
2022-12-29T03:56:29.409Z,47.56
2022-12-29T03:57:29.394Z,47.36
2022-12-29T03:58:29.467Z,47.36
2022-12-29T03:59:29.447Z,47.36
2022-12-29T04:00:29.448Z,47.36
2022-12-29T04:01:29.607Z,47.13
2022-12-29T04:02:29.609Z,47.09
2022-12-29T04:03:29.464Z,47.01
2022-12-29T04:04:29.443Z,47.01
2022-12-29T04:05:29.497Z,46.95
2022-12-29T04:06:29.485Z,46.95
2022-12-29T04:07:29.422Z,46.96
2022-12-29T04:08:29.494Z,46.84
2022-12-29T04:09:29.459Z,46.84
2022-12-29T04:10:29.494Z,46.85
2022-12-29T04:11:33.043Z,46.57
2022-12-29T04:13:29.456Z,46.81
2022-12-29T04:14:29.484Z,46.76
2022-12-29T04:15:29.490Z,46.76
2022-12-29T04:16:29.492Z,47.21
2022-12-29T04:17:29.490Z,47.21
2022-12-29T04:18:29.508Z,47.14
2022-12-29T04:19:31.783Z,47.43
2022-12-29T04:20:29.509Z,47.43
2022-12-29T04:21:29.560Z,47.44
2022-12-29T04:22:29.502Z,47.44
2022-12-29T04:23:29.464Z,47.71
2022-12-29T04:24:29.528Z,47.72
2022-12-29T04:25:29.508Z,47.57
2022-12-29T04:26:29.518Z,47.85
2022-12-29T04:27:29.539Z,48.23
2022-12-29T04:28:29.563Z,48.23
2022-12-29T04:29:29.578Z,48.27
2022-12-29T04:30:29.505Z,48.27
2022-12-29T04:31:29.656Z,48.50
2022-12-29T04:32:29.494Z,48.52
2022-12-29T04:33:29.512Z,48.46
2022-12-29T04:34:29.533Z,48.34
2022-12-29T04:35:29.497Z,48.45
2022-12-29T04:36:30.076Z,48.35
2022-12-29T04:37:29.543Z,48.36
2022-12-29T04:38:29.542Z,48.36
2022-12-29T04:39:29.504Z,48.38
2022-12-29T04:40:29.502Z,48.37
2022-12-29T04:41:29.568Z,48.37
2022-12-29T04:42:29.572Z,47.88
2022-12-29T04:43:29.552Z,47.88
2022-12-29T04:44:29.573Z,47.43
2022-12-29T04:45:29.551Z,47.43
2022-12-29T04:46:29.551Z,47.10
2022-12-29T04:47:29.555Z,47.24
2022-12-29T04:48:29.527Z,47.24
2022-12-29T04:49:29.523Z,46.92
2022-12-29T04:50:29.579Z,46.71
2022-12-29T04:51:29.604Z,47.01
2022-12-29T04:52:29.575Z,47.20
2022-12-29T04:53:29.614Z,46.95
2022-12-29T04:54:29.548Z,46.64
2022-12-29T04:55:29.619Z,46.41
2022-12-29T04:56:31.986Z,46.47
2022-12-29T04:57:29.627Z,46.47
2022-12-29T04:58:29.553Z,46.61
2022-12-29T04:59:29.543Z,46.50
2022-12-29T05:00:29.631Z,46.99
2022-12-29T05:01:29.852Z,46.93
2022-12-29T05:02:29.844Z,46.93
2022-12-29T05:03:29.648Z,46.86
2022-12-29T05:04:29.577Z,46.83
2022-12-29T05:06:29.568Z,46.64
2022-12-29T05:07:29.666Z,46.59
2022-12-29T05:08:29.577Z,46.59
2022-12-29T05:09:29.579Z,46.40
2022-12-29T05:10:29.606Z,46.12
2022-12-29T05:11:29.580Z,46.12
2022-12-29T05:12:29.566Z,46.43
2022-12-29T05:13:29.601Z,46.24
2022-12-29T05:14:29.584Z,46.43
2022-12-29T05:15:29.651Z,46.09
2022-12-29T05:16:29.682Z,45.79
2022-12-29T05:17:29.654Z,45.79
2022-12-29T05:18:29.701Z,45.91
2022-12-29T05:19:29.641Z,45.91
2022-12-29T05:20:29.683Z,45.97
2022-12-29T05:21:29.645Z,45.97
2022-12-29T05:22:29.650Z,45.92
2022-12-29T05:24:29.658Z,45.51
2022-12-29T05:25:29.627Z,45.58
2022-12-29T05:26:29.665Z,45.72
2022-12-29T05:27:29.655Z,45.72
2022-12-29T05:28:29.706Z,46.10
2022-12-29T05:29:29.677Z,46.02
2022-12-29T05:30:29.651Z,46.04
2022-12-29T05:31:29.663Z,46.04
2022-12-29T05:32:29.657Z,46.06
2022-12-29T05:33:32.191Z,46.30
2022-12-29T05:34:29.666Z,46.30
2022-12-29T05:35:29.727Z,46.17
2022-12-29T05:36:34.446Z,46.06
2022-12-29T05:37:29.663Z,46.00
2022-12-29T05:38:29.724Z,46.17
2022-12-29T05:39:29.674Z,46.17
2022-12-29T05:40:29.717Z,46.36
2022-12-29T05:41:29.659Z,46.36
2022-12-29T05:42:29.703Z,46.06
2022-12-29T05:43:29.714Z,45.96
2022-12-29T05:44:29.663Z,46.20
2022-12-29T05:45:29.735Z,46.38
2022-12-29T05:46:29.820Z,46.21
2022-12-29T05:47:29.690Z,46.16
2022-12-29T05:48:35.915Z,45.96
2022-12-29T05:49:29.669Z,45.96
2022-12-29T05:50:29.752Z,45.95
2022-12-29T05:51:29.729Z,45.95
2022-12-29T05:53:29.787Z,45.80
2022-12-29T05:54:29.704Z,46.52
2022-12-29T05:55:29.719Z,46.71
2022-12-29T05:56:29.686Z,46.71
2022-12-29T05:57:29.698Z,46.80
2022-12-29T05:58:29.762Z,46.58
2022-12-29T05:59:29.704Z,46.58
2022-12-29T06:00:29.754Z,46.57
2022-12-29T06:01:29.806Z,46.57
2022-12-29T06:02:29.873Z,46.62
2022-12-29T06:03:29.784Z,46.51
2022-12-29T06:04:29.759Z,46.44
2022-12-29T06:05:29.747Z,46.53
2022-12-29T06:06:29.775Z,46.53
2022-12-29T06:07:29.728Z,46.62
2022-12-29T06:08:29.786Z,46.81
2022-12-29T06:09:29.747Z,46.81
2022-12-29T06:10:32.459Z,46.72
2022-12-29T06:12:29.783Z,46.65
2022-12-29T06:13:29.790Z,46.79
2022-12-29T06:14:29.731Z,46.79
2022-12-29T06:15:29.742Z,47.09
2022-12-29T06:16:29.891Z,47.23
2022-12-29T06:17:29.819Z,47.23
2022-12-29T06:18:29.751Z,47.20
2022-12-29T06:19:29.785Z,47.30
2022-12-29T06:20:29.749Z,47.30
2022-12-29T06:21:29.812Z,47.11
2022-12-29T06:22:29.760Z,46.75
2022-12-29T06:23:29.798Z,46.71
2022-12-29T06:24:29.767Z,46.71
2022-12-29T06:25:29.756Z,46.56
2022-12-29T06:26:29.794Z,46.31
2022-12-29T06:27:29.812Z,47.04
2022-12-29T06:28:29.796Z,47.32
2022-12-29T06:29:29.773Z,47.32
2022-12-29T06:30:29.823Z,47.72
2022-12-29T06:31:29.935Z,47.71
2022-12-29T06:32:29.784Z,47.71
2022-12-29T06:33:29.868Z,47.30
2022-12-29T06:34:29.844Z,47.06
2022-12-29T06:35:29.803Z,46.88
2022-12-29T06:36:29.862Z,47.25
2022-12-29T06:37:29.841Z,47.25
2022-12-29T06:38:29.871Z,47.58
2022-12-29T06:39:29.839Z,47.58
2022-12-29T06:40:29.838Z,47.68
2022-12-29T06:41:32.427Z,47.47
2022-12-29T06:43:29.822Z,47.50
2022-12-29T06:44:29.809Z,47.50
2022-12-29T06:45:29.955Z,47.05
2022-12-29T06:46:29.963Z,47.06
2022-12-29T06:47:32.629Z,47.31
2022-12-29T06:48:29.852Z,47.31
2022-12-29T06:49:29.875Z,47.85
2022-12-29T06:50:29.880Z,47.85
2022-12-29T06:51:29.864Z,48.70
2022-12-29T06:52:29.874Z,48.70
2022-12-29T06:53:29.875Z,48.77
2022-12-29T06:54:29.872Z,49.21
2022-12-29T06:55:29.891Z,49.70
2022-12-29T06:56:29.890Z,49.47
2022-12-29T06:57:29.892Z,49.47
2022-12-29T06:58:29.895Z,49.39
2022-12-29T06:59:29.919Z,49.23
2022-12-29T07:00:29.861Z,49.23
2022-12-29T07:01:30.086Z,49.03
2022-12-29T07:02:29.968Z,49.12
2022-12-29T07:03:29.933Z,49.01
2022-12-29T07:04:29.906Z,49.01
2022-12-29T07:05:29.928Z,48.67
2022-12-29T07:06:29.870Z,48.67
2022-12-29T07:07:29.917Z,48.50
2022-12-29T07:08:29.896Z,48.52
2022-12-29T07:09:29.875Z,48.52
2022-12-29T07:10:29.977Z,48.98
2022-12-29T07:11:29.916Z,49.38
2022-12-29T07:12:29.943Z,50.33
2022-12-29T07:13:29.908Z,50.55
2022-12-29T07:14:29.897Z,50.90
2022-12-29T07:15:29.950Z,51.11
2022-12-29T07:16:29.921Z,51.08
2022-12-29T07:17:29.960Z,50.73
2022-12-29T07:18:29.943Z,50.69
2022-12-29T07:19:29.946Z,50.69
2022-12-29T07:20:29.980Z,50.67
2022-12-29T07:21:29.909Z,50.67
2022-12-29T07:22:29.984Z,50.14
2022-12-29T07:23:29.988Z,50.28
2022-12-29T07:24:32.908Z,50.23
2022-12-29T07:25:29.997Z,50.46
2022-12-29T07:26:34.523Z,50.46
2022-12-29T07:27:29.975Z,50.24
2022-12-29T07:28:29.969Z,50.49
2022-12-29T07:29:29.987Z,50.54
2022-12-29T07:30:30.005Z,50.69
2022-12-29T07:31:29.999Z,50.69
2022-12-29T07:32:29.977Z,50.69
2022-12-29T07:33:29.975Z,50.55
2022-12-29T07:34:29.982Z,50.45
2022-12-29T07:35:30.019Z,50.49
2022-12-29T07:36:34.349Z,50.52
2022-12-29T07:37:29.949Z,50.61
2022-12-29T07:38:30.017Z,51.12
2022-12-29T07:39:29.961Z,51.28
2022-12-29T07:40:29.955Z,51.35
2022-12-29T07:41:30.009Z,51.33
2022-12-29T07:42:29.967Z,51.04
2022-12-29T07:43:30.004Z,50.74
2022-12-29T07:44:29.998Z,50.74
2022-12-29T07:45:29.971Z,50.51
2022-12-29T07:46:54.371Z,50.43
2022-12-29T07:47:30.008Z,50.45
2022-12-29T07:48:30.041Z,50.44
2022-12-29T07:49:29.988Z,50.34
2022-12-29T07:50:30.014Z,50.53
2022-12-29T07:54:30.358Z,50.11
2022-12-29T07:56:30.275Z,50.15
2022-12-29T07:57:32.341Z,50.05
2022-12-29T07:58:30.368Z,50.03
2022-12-29T08:00:30.306Z,50.13
2022-12-29T08:01:30.339Z,49.99
2022-12-29T08:02:30.206Z,49.89
2022-12-29T08:03:30.275Z,49.67
2022-12-29T08:04:30.159Z,49.82
2022-12-29T08:05:30.163Z,49.55
2022-12-29T08:06:30.230Z,49.32
2022-12-29T08:07:30.155Z,49.10
2022-12-29T08:08:30.303Z,49.11
2022-12-29T08:09:30.189Z,48.65
2022-12-29T08:10:30.186Z,48.55
2022-12-29T08:11:30.245Z,48.60
2022-12-29T08:13:30.169Z,48.30
2022-12-29T08:14:30.272Z,48.43
2022-12-29T08:16:30.425Z,47.91
2022-12-29T08:17:30.192Z,47.96
2022-12-29T08:18:30.177Z,48.01
2022-12-29T08:19:30.180Z,48.01
2022-12-29T08:20:30.261Z,47.70
2022-12-29T08:21:30.212Z,47.40
2022-12-29T08:22:34.759Z,47.28
2022-12-29T08:23:30.255Z,47.10
2022-12-29T08:25:30.198Z,47.06
2022-12-29T08:26:30.321Z,46.51
2022-12-29T08:27:30.274Z,46.59
2022-12-29T08:28:30.255Z,46.61
2022-12-29T08:31:30.303Z,46.57
2022-12-29T08:32:30.157Z,46.37
2022-12-29T08:33:30.156Z,46.15
2022-12-29T08:34:30.212Z,45.85
2022-12-29T08:35:30.089Z,45.99
2022-12-29T08:36:30.149Z,45.76
2022-12-29T08:37:31.458Z,45.74
2022-12-29T08:38:30.105Z,45.74
2022-12-29T08:39:30.172Z,45.30
2022-12-29T08:41:30.148Z,45.16
2022-12-29T08:42:30.133Z,45.34
2022-12-29T08:43:30.217Z,45.50
2022-12-29T08:44:30.242Z,45.51
2022-12-29T08:45:30.188Z,45.51
2022-12-29T08:46:30.211Z,45.12
2022-12-29T08:47:30.155Z,45.12
2022-12-29T08:48:30.133Z,44.88
2022-12-29T08:49:30.205Z,44.86
2022-12-29T08:50:30.130Z,44.86
2022-12-29T08:51:30.148Z,44.89
2022-12-29T08:52:30.224Z,44.98
2022-12-29T08:53:30.175Z,44.19
2022-12-29T08:54:30.226Z,44.55
2022-12-29T08:56:30.201Z,44.78
2022-12-29T08:57:30.225Z,44.78
2022-12-29T08:58:30.249Z,44.95
2022-12-29T08:59:35.240Z,44.82
2022-12-29T09:00:30.193Z,44.57
2022-12-29T09:01:30.296Z,44.87
2022-12-29T09:02:30.518Z,44.70
2022-12-29T09:04:14.222Z,44.26
2022-12-29T09:04:30.494Z,43.31
2022-12-29T09:05:30.255Z,43.48
2022-12-29T09:07:30.215Z,42.81
2022-12-29T09:08:30.227Z,41.95
2022-12-29T09:09:30.231Z,40.62
2022-12-29T09:10:30.226Z,38.17
2022-12-29T09:11:30.218Z,38.17
2022-12-29T09:12:34.470Z,35.24
2022-12-29T09:13:30.194Z,35.24
2022-12-29T09:14:30.278Z,32.68
2022-12-29T09:15:30.274Z,32.91
2022-12-29T09:16:30.371Z,32.19
2022-12-29T09:17:30.200Z,32.19
2022-12-29T09:18:30.254Z,28.97
2022-12-29T09:19:30.226Z,28.95
2022-12-29T09:20:30.269Z,28.44
2022-12-29T09:21:30.238Z,28.44
2022-12-29T09:22:30.237Z,26.45
2022-12-29T09:23:30.296Z,25.55
2022-12-29T09:24:30.260Z,24.96
2022-12-29T09:25:30.279Z,25.99
2022-12-29T09:26:30.256Z,25.99
2022-12-29T09:27:30.238Z,25.86
2022-12-29T09:28:30.265Z,26.93
2022-12-29T09:29:30.251Z,26.93
2022-12-29T09:30:30.241Z,27.91
2022-12-29T09:31:30.266Z,27.91
2022-12-29T09:32:33.871Z,28.51
2022-12-29T09:33:30.495Z,29.44
2022-12-29T09:34:30.277Z,30.21
2022-12-29T09:35:30.278Z,30.21
2022-12-29T09:36:30.279Z,30.62
2022-12-29T09:37:30.280Z,30.62
2022-12-29T09:38:30.290Z,32.07
2022-12-29T09:39:30.279Z,32.33
2022-12-29T09:40:30.290Z,32.99
2022-12-29T09:41:30.291Z,33.57
2022-12-29T09:42:30.247Z,33.57
2022-12-29T09:43:30.465Z,34.09
2022-12-29T09:44:30.295Z,34.09
2022-12-29T09:45:30.306Z,34.50
2022-12-29T09:46:30.443Z,35.50
2022-12-29T09:47:30.278Z,37.02
2022-12-29T09:48:30.267Z,37.02
2022-12-29T09:49:30.301Z,37.98
2022-12-29T09:50:30.311Z,38.18
2022-12-29T09:51:30.356Z,38.25
2022-12-29T09:53:30.328Z,38.36
2022-12-29T09:54:30.327Z,38.68
2022-12-29T09:55:30.375Z,39.10
2022-12-29T09:56:30.376Z,39.28
2022-12-29T09:57:30.323Z,39.28
2022-12-29T09:59:30.365Z,39.86
2022-12-29T10:00:30.401Z,39.86
2022-12-29T10:01:30.413Z,40.06
2022-12-29T10:04:30.336Z,40.11
2022-12-29T10:05:30.358Z,40.19
2022-12-29T10:06:30.379Z,40.22
2022-12-29T10:07:31.075Z,40.22
2022-12-29T10:08:30.340Z,40.50
2022-12-29T10:09:30.364Z,40.77
2022-12-29T10:10:30.742Z,41.05
2022-12-29T10:11:30.366Z,41.35
2022-12-29T10:12:30.358Z,41.35
2022-12-29T10:13:30.361Z,41.41
2022-12-29T10:14:30.395Z,41.26
2022-12-29T10:15:30.356Z,41.15
2022-12-29T10:16:30.372Z,41.42
2022-12-29T10:17:30.363Z,41.55
2022-12-29T10:18:30.363Z,41.59
2022-12-29T10:19:33.316Z,41.68
2022-12-29T10:21:30.389Z,41.97
2022-12-29T10:22:30.419Z,42.08
2022-12-29T10:23:30.420Z,42.02
2022-12-29T10:24:30.452Z,41.95
2022-12-29T10:25:32.957Z,41.95
2022-12-29T10:26:30.417Z,42.14
2022-12-29T10:27:30.442Z,41.73
2022-12-29T10:28:30.415Z,41.98
2022-12-29T10:29:30.439Z,41.75
2022-12-29T10:30:30.414Z,41.29
2022-12-29T10:31:30.421Z,41.29
2022-12-29T10:32:30.455Z,41.22
2022-12-29T10:33:30.407Z,41.24
2022-12-29T10:34:30.464Z,41.09
2022-12-29T10:35:30.430Z,41.09
2022-12-29T10:36:30.441Z,41.10
2022-12-29T10:37:34.108Z,40.83
2022-12-29T10:38:30.385Z,40.83
2022-12-29T10:39:30.482Z,40.96
2022-12-29T10:40:30.427Z,40.96
2022-12-29T10:41:30.413Z,40.73
2022-12-29T10:42:30.445Z,41.58
2022-12-29T10:43:30.451Z,41.58
2022-12-29T10:44:30.490Z,42.12
2022-12-29T10:45:30.523Z,42.12
2022-12-29T10:46:30.466Z,42.15
2022-12-29T10:47:30.995Z,42.18
2022-12-29T10:48:31.931Z,42.18
2022-12-29T10:49:30.470Z,42.19
2022-12-29T10:51:30.490Z,42.61
2022-12-29T10:52:30.491Z,42.32
2022-12-29T10:53:30.472Z,42.32
2022-12-29T10:54:30.483Z,42.13
2022-12-29T10:55:30.497Z,42.22
2022-12-29T10:56:30.481Z,42.62
2022-12-29T10:57:30.527Z,42.63
2022-12-29T10:58:30.440Z,42.63
2022-12-29T10:59:30.489Z,42.56
2022-12-29T11:00:30.508Z,42.51
2022-12-29T11:01:30.580Z,42.33
2022-12-29T11:02:30.598Z,42.23
2022-12-29T11:03:30.533Z,42.23
2022-12-29T11:04:30.461Z,42.69
2022-12-29T11:05:30.508Z,43.51
2022-12-29T11:06:30.525Z,43.51
2022-12-29T11:07:30.504Z,43.81
2022-12-29T11:08:30.508Z,43.81
2022-12-29T11:09:42.014Z,43.75
2022-12-29T11:10:30.560Z,44.03
2022-12-29T11:11:30.510Z,43.72
2022-12-29T11:12:30.545Z,43.50
2022-12-29T11:13:34.999Z,43.50
2022-12-29T11:14:30.543Z,43.48
2022-12-29T11:15:30.561Z,43.63
2022-12-29T11:16:30.580Z,43.68
2022-12-29T11:17:30.533Z,43.47
2022-12-29T11:18:30.579Z,43.31
2022-12-29T11:19:30.536Z,43.28
2022-12-29T11:20:30.527Z,43.13
2022-12-29T11:21:30.545Z,43.10
2022-12-29T11:22:30.544Z,43.10
2022-12-29T11:23:30.531Z,43.73
2022-12-29T11:24:31.223Z,44.12
2022-12-29T11:25:30.530Z,44.31
2022-12-29T11:26:34.437Z,44.31
2022-12-29T11:27:30.578Z,44.23
2022-12-29T11:29:30.563Z,44.71
2022-12-29T11:30:30.551Z,44.56
2022-12-29T11:31:30.579Z,44.51
2022-12-29T11:32:30.561Z,44.52
2022-12-29T11:33:30.612Z,44.47
2022-12-29T11:34:30.571Z,44.47
2022-12-29T11:35:30.611Z,44.04
2022-12-29T11:36:30.572Z,44.04
2022-12-29T11:37:30.583Z,43.55
2022-12-29T11:38:30.596Z,43.29
2022-12-29T11:39:30.603Z,43.36
2022-12-29T11:41:30.559Z,43.73
2022-12-29T11:42:30.547Z,43.73
2022-12-29T11:43:30.666Z,44.20
2022-12-29T11:44:30.596Z,44.57
2022-12-29T11:45:30.645Z,44.88
2022-12-29T11:46:30.702Z,44.88
2022-12-29T11:47:30.618Z,45.57
2022-12-29T11:48:30.669Z,45.69
2022-12-29T11:49:30.603Z,45.69
2022-12-29T11:50:30.649Z,45.84
2022-12-29T11:51:30.620Z,45.76
2022-12-29T11:52:30.607Z,45.75
2022-12-29T11:53:30.657Z,45.79
2022-12-29T11:54:30.593Z,45.87
2022-12-29T11:56:33.071Z,45.79
2022-12-29T11:57:30.592Z,45.77
2022-12-29T11:58:30.658Z,45.70
2022-12-29T11:59:30.607Z,45.77
2022-12-29T12:00:30.631Z,45.82
2022-12-29T12:01:31.502Z,45.98
2022-12-29T12:02:30.704Z,45.98
2022-12-29T12:03:30.753Z,45.88
2022-12-29T12:05:30.640Z,45.74
2022-12-29T12:06:30.617Z,45.79
2022-12-29T12:07:30.643Z,45.76
2022-12-29T12:08:30.650Z,45.82
2022-12-29T12:09:30.629Z,45.82
2022-12-29T12:10:30.710Z,45.72
2022-12-29T12:11:30.647Z,45.72
2022-12-29T12:12:30.658Z,45.75
2022-12-29T12:13:30.709Z,45.83
2022-12-29T12:14:30.671Z,45.83
2022-12-29T12:15:30.697Z,45.90
2022-12-29T12:16:30.718Z,46.10
2022-12-29T12:17:30.655Z,46.29
2022-12-29T12:18:30.703Z,46.32
2022-12-29T12:19:30.675Z,46.40
2022-12-29T12:20:30.712Z,46.10
2022-12-29T12:21:30.655Z,46.10
2022-12-29T12:22:30.638Z,46.06
2022-12-29T12:23:30.709Z,46.12
2022-12-29T12:24:30.706Z,46.26
2022-12-29T12:25:30.679Z,46.45
2022-12-29T12:26:30.652Z,46.45
2022-12-29T12:27:30.700Z,46.44
2022-12-29T12:28:36.291Z,46.76
2022-12-29T12:29:30.663Z,46.76
2022-12-29T12:30:30.680Z,46.76
2022-12-29T12:31:30.742Z,46.76
2022-12-29T12:32:30.744Z,46.67
2022-12-29T12:33:30.743Z,46.64
2022-12-29T12:34:30.688Z,47.02
2022-12-29T12:35:30.718Z,47.10
2022-12-29T12:36:30.765Z,46.96
2022-12-29T12:37:30.673Z,46.96
2022-12-29T12:38:31.683Z,47.02
2022-12-29T12:39:30.728Z,47.02
2022-12-29T12:40:30.732Z,47.11
2022-12-29T12:41:30.761Z,47.12
2022-12-29T12:42:30.734Z,46.89
2022-12-29T12:43:30.737Z,46.83
2022-12-29T12:44:30.819Z,46.88
2022-12-29T12:45:30.748Z,46.64
2022-12-29T12:46:30.824Z,46.72
2022-12-29T12:47:30.705Z,46.55
2022-12-29T12:48:30.743Z,46.39
2022-12-29T12:49:30.748Z,46.49
2022-12-29T12:50:30.779Z,46.47
2022-12-29T12:51:30.798Z,46.48
2022-12-29T12:52:30.714Z,46.20
2022-12-29T12:53:30.776Z,46.16
2022-12-29T12:54:30.762Z,46.16
2022-12-29T12:55:30.804Z,46.13
2022-12-29T12:56:30.745Z,46.00
2022-12-29T12:57:30.728Z,45.86
2022-12-29T12:58:30.757Z,46.01
2022-12-29T12:59:30.816Z,45.68
2022-12-29T13:00:30.756Z,45.58
2022-12-29T13:01:30.800Z,45.61
2022-12-29T13:02:31.092Z,45.86
2022-12-29T13:03:30.948Z,45.93
2022-12-29T13:04:30.826Z,45.94
2022-12-29T13:05:30.805Z,46.02
2022-12-29T13:06:30.786Z,46.04
2022-12-29T13:07:30.842Z,46.02
2022-12-29T13:08:30.814Z,46.02
2022-12-29T13:09:30.803Z,45.97
2022-12-29T13:10:30.768Z,45.97
2022-12-29T13:11:30.782Z,45.95
2022-12-29T13:13:30.843Z,45.63
2022-12-29T13:14:30.823Z,45.91
2022-12-29T13:15:31.968Z,46.31
2022-12-29T13:16:30.858Z,46.31
2022-12-29T13:17:30.839Z,46.33
2022-12-29T13:18:30.828Z,46.33
2022-12-29T13:19:30.829Z,46.43
2022-12-29T13:20:30.831Z,46.53
2022-12-29T13:21:30.847Z,46.61
2022-12-29T13:22:30.870Z,46.62
2022-12-29T13:23:30.786Z,46.62
2022-12-29T13:24:30.864Z,46.54
2022-12-29T13:25:30.861Z,46.45
2022-12-29T13:26:30.867Z,46.45
2022-12-29T13:28:30.843Z,46.33
2022-12-29T13:29:30.855Z,46.51
2022-12-29T13:30:30.916Z,46.50
2022-12-29T13:31:30.939Z,46.47
2022-12-29T13:32:30.849Z,46.55
2022-12-29T13:33:30.816Z,46.64
2022-12-29T13:34:30.866Z,46.93
2022-12-29T13:35:30.876Z,47.64
2022-12-29T13:37:30.870Z,47.86
2022-12-29T13:38:30.868Z,47.71
2022-12-29T13:39:30.893Z,48.99
2022-12-29T13:40:30.913Z,49.01
2022-12-29T13:41:30.868Z,48.18
2022-12-29T13:42:30.905Z,49.12
2022-12-29T13:43:30.971Z,48.39
2022-12-29T13:44:36.084Z,48.39